Time;durP1;ratioP1;P1;durP2;ratioP2;P2;SDS_P1;SDS_P2;PMS_P1;PMS_P2;Temp;Humidity;BMP_temperature;BMP_pressure;BME280_temperature;BME280_humidity;BME280_pressure;Samples;Min_cycle;Max_cycle;Signal;HPM_P1;HPM_P2
2023/09/19 00:00:25;0.00;0.00;0.62;0.00;0.00;0.62;;;;;22.20;1.00;;;;;;2267637;61;1373;-85
2023/09/19 00:02:57;0.00;0.00;0.62;0.00;0.00;0.62;;;;;21.90;1.00;;;;;;2267623;61;2111;-86
2023/09/19 00:05:25;10215.00;0.03;18.32;0.00;0.00;0.62;;;;;21.90;1.50;;;;;;2267813;61;1145;-86
2023/09/19 00:07:55;92826.00;0.31;161.19;0.00;0.00;0.62;;;;;22.00;1.00;;;;;;2267711;61;1138;-86
2023/09/19 00:10:24;160205.00;0.53;277.39;0.00;0.00;0.62;;;;;21.90;1.00;;;;;;2267614;61;1391;-85
2023/09/19 00:12:51;102520.00;0.34;177.92;23390.00;0.08;41.14;;;;;22.00;1.00;;;;;;2267668;61;2006;-85
2023/09/19 00:15:18;34183.00;0.11;59.82;0.00;0.00;0.62;;;;;22.30;1.00;;;;;;2267874;61;1176;-86
2023/09/19 00:17:47;251652.00;0.84;434.79;6584.00;0.02;12.03;;;;;22.20;1.00;;;;;;2267695;61;1177;-86
2023/09/19 00:20:17;54418.00;0.18;94.83;0.00;0.00;0.62;;;;;22.20;1.00;;;;;;2267718;61;1359;-85
2023/09/19 00:22:44;35373.00;0.12;61.88;0.00;0.00;0.62;;;;;22.30;1.00;;;;;;2267721;61;1109;-86
2023/09/19 00:25:11;255023.00;0.85;440.59;43370.00;0.14;75.72;;;;;22.30;1.00;;;;;;2267842;61;997;-87
2023/09/19 00:27:41;0.00;0.00;0.62;0.00;0.00;0.62;;;;;22.20;1.00;;;;;;2267666;61;1102;-86
2023/09/19 00:30:14;0.00;0.00;0.62;0.00;0.00;0.62;;;;;22.10;1.00;;;;;;2267531;61;1366;-86
2023/09/19 00:32:41;0.00;0.00;0.62;0.00;0.00;0.62;;;;;22.20;1.00;;;;;;2267413;61;1016;-85
2023/09/19 00:35:10;173835.00;0.58;300.87;0.00;0.00;0.62;;;;;22.30;1.00;;;;;;2267650;61;2030;-85
2023/09/19 00:37:38;11615.00;0.04;20.75;0.00;0.00;0.62;;;;;22.40;1.00;;;;;;2267856;61;1134;-85
2023/09/19 00:40:09;23208.00;0.08;40.82;0.00;0.00;0.62;;;;;22.10;1.00;;;;;;2267672;61;1426;-85
2023/09/19 00:42:37;0.00;0.00;0.62;0.00;0.00;0.62;;;;;21.90;1.00;;;;;;2267676;61;1260;-85
2023/09/19 00:45:05;0.00;0.00;0.62;0.00;0.00;0.62;;;;;22.00;1.00;;;;;;2267929;61;1078;-86
2023/09/19 00:47:32;9261.00;0.03;16.67;0.00;0.00;0.62;;;;;21.60;1.00;;;;;;2267856;61;1646;-86
2023/09/19 00:49:59;0.00;0.00;0.62;0.00;0.00;0.62;;;;;21.70;1.20;;;;;;2267771;61;1394;-87
2023/09/19 00:52:28;60718.00;0.20;105.72;0.00;0.00;0.62;;;;;21.90;1.00;;;;;;2267060;61;1130;-84
2023/09/19 00:54:56;186228.00;0.62;322.21;34323.00;0.11;60.07;;;;;21.50;1.00;;;;;;2267305;61;1946;-85
2023/09/19 00:57:23;0.00;0.00;0.62;0.00;0.00;0.62;;;;;21.30;1.30;;;;;;2267306;61;1158;-85
2023/09/19 00:59:52;8618.00;0.03;15.55;0.00;0.00;0.62;;;;;21.20;1.10;;;;;;2267208;61;1324;-85
2023/09/19 01:02:19;0.00;0.00;0.62;0.00;0.00;0.62;;;;;21.40;2.20;;;;;;2267403;61;1235;-84
2023/09/19 01:04:46;0.00;0.00;0.62;0.00;0.00;0.62;;;;;21.50;1.40;;;;;;2267521;61;1125;-85
2023/09/19 01:07:15;0.00;0.00;0.62;0.00;0.00;0.62;;;;;21.60;1.00;;;;;;2267714;61;1591;-85
2023/09/19 01:09:44;0.00;0.00;0.62;0.00;0.00;0.62;;;;;21.50;1.40;;;;;;2267381;61;1348;-84
2023/09/19 01:12:15;0.00;0.00;0.62;0.00;0.00;0.62;;;;;21.60;1.00;;;;;;2267449;61;1229;-84
2023/09/19 01:14:57;0.00;0.00;0.62;0.00;0.00;0.62;;;;;21.30;1.30;;;;;;2267449;61;1993;-85
2023/09/19 01:17:30;175058.00;0.58;302.98;48686.00;0.16;84.91;;;;;21.10;2.20;;;;;;2267468;61;1048;-85
2023/09/19 01:20:24;0.00;0.00;0.62;0.00;0.00;0.62;;;;;20.90;3.60;;;;;;2267293;61;1494;-84
2023/09/19 01:23:03;62357.00;0.21;108.55;0.00;0.00;0.62;;;;;20.90;4.10;;;;;;2267235;61;1168;-84
2023/09/19 01:25:52;17200.00;0.06;30.42;0.00;0.00;0.62;;;;;20.80;3.70;;;;;;2267380;61;1046;-84
2023/09/19 01:28:36;0.00;0.00;0.62;0.00;0.00;0.62;;;;;20.70;4.80;;;;;;2267587;61;1126;-83
2023/09/19 01:31:09;69066.00;0.23;120.15;0.00;0.00;0.62;;;;;21.10;3.80;;;;;;2267366;61;1265;-84
2023/09/19 01:34:00;93262.00;0.31;161.94;0.00;0.00;0.62;;;;;21.10;3.20;;;;;;2267397;61;1928;-85
2023/09/19 01:36:29;0.00;0.00;0.62;0.00;0.00;0.62;;;;;21.60;2.70;;;;;;2267418;61;1091;-85
2023/09/19 01:39:00;101560.00;0.34;176.26;0.00;0.00;0.62;;;;;21.50;2.00;;;;;;2267657;61;1271;-86
2023/09/19 01:41:40;186391.00;0.62;322.49;49812.00;0.17;86.86;;;;;21.20;3.10;;;;;;2267542;61;1074;-85
2023/09/19 01:44:12;24436.00;0.08;42.95;0.00;0.00;0.62;;;;;20.90;4.00;;;;;;2268091;61;1052;-86
2023/09/19 01:46:42;50176.00;0.17;87.49;0.00;0.00;0.62;;;;;20.90;3.70;;;;;;2268416;61;1074;-85
2023/09/19 01:49:23;33280.00;0.11;58.26;0.00;0.00;0.62;;;;;20.90;4.50;;;;;;2268196;61;1312;-86
2023/09/19 01:52:02;0.00;0.00;0.62;0.00;0.00;0.62;;;;;20.80;4.10;;;;;;2268308;61;980;-85
2023/09/19 01:54:33;0.00;0.00;0.62;0.00;0.00;0.62;;;;;20.70;4.10;;;;;;2268381;61;1984;-82
2023/09/19 01:57:09;0.00;0.00;0.62;0.00;0.00;0.62;;;;;20.50;5.30;;;;;;2268505;61;895;-83
2023/09/19 01:59:42;72404.00;0.24;125.91;0.00;0.00;0.62;;;;;20.50;6.00;;;;;;2268452;61;1365;-85
2023/09/19 02:02:12;0.00;0.00;0.62;0.00;0.00;0.62;;;;;20.60;4.70;;;;;;2268409;61;1054;-83
2023/09/19 02:04:39;0.00;0.00;0.62;0.00;0.00;0.62;;;;;20.60;4.90;;;;;;2268421;61;1095;-84
2023/09/19 02:07:08;25979.00;0.09;45.62;0.00;0.00;0.62;;;;;20.60;4.40;;;;;;2268389;61;1586;-85
2023/09/19 02:09:35;14265.00;0.05;25.34;0.00;0.00;0.62;;;;;20.40;4.90;;;;;;2268407;61;1407;-85
2023/09/19 02:12:04;70873.00;0.24;123.27;0.00;0.00;0.62;;;;;20.50;5.70;;;;;;2268472;61;1559;-86
2023/09/19 02:14:31;0.00;0.00;0.62;0.00;0.00;0.62;;;;;20.60;4.50;;;;;;2268434;61;1927;-84
2023/09/19 02:16:57;158319.00;0.53;274.14;52263.00;0.17;91.10;;;;;21.10;3.70;;;;;;2268417;61;986;-86
2023/09/19 02:19:26;0.00;0.00;0.62;0.00;0.00;0.62;;;;;21.40;2.10;;;;;;2268534;61;1403;-86
2023/09/19 02:21:52;134385.00;0.45;232.89;0.00;0.00;0.62;;;;;21.60;1.00;;;;;;2268385;61;1102;-86
2023/09/19 02:24:19;132465.00;0.44;229.58;0.00;0.00;0.62;;;;;21.70;1.30;;;;;;2268200;61;1107;-84
2023/09/19 02:26:47;117343.00;0.39;203.50;0.00;0.00;0.62;;;;;21.80;1.00;;;;;;2268078;61;1156;-87
2023/09/19 02:29:14;0.00;0.00;0.62;0.00;0.00;0.62;;;;;21.70;1.00;;;;;;2268103;61;1360;-85
2023/09/19 02:31:40;193890.00;0.65;335.41;0.00;0.00;0.62;;;;;21.80;1.00;;;;;;2268195;61;993;-84
2023/09/19 02:34:09;105526.00;0.35;183.11;0.00;0.00;0.62;;;;;21.80;1.00;;;;;;2268207;61;2005;-87
2023/09/19 02:36:37;0.00;0.00;0.62;0.00;0.00;0.62;;;;;21.90;1.10;;;;;;2267925;61;1074;-85
2023/09/19 02:39:06;148842.00;0.50;257.81;0.00;0.00;0.62;;;;;22.00;1.00;;;;;;2268035;61;1367;-86
2023/09/19 02:41:33;39535.00;0.13;69.08;0.00;0.00;0.62;;;;;21.80;1.00;;;;;;2268207;61;1160;-85
2023/09/19 02:44:01;0.00;0.00;0.62;0.00;0.00;0.62;;;;;21.80;1.00;;;;;;2268099;61;1130;-86
2023/09/19 02:46:28;0.00;0.00;0.62;0.00;0.00;0.62;;;;;21.70;1.00;;;;;;2268169;61;966;-86
2023/09/19 02:48:55;182942.00;0.61;316.56;0.00;0.00;0.62;;;;;21.80;1.40;;;;;;2268024;61;1345;-86
2023/09/19 02:51:22;91150.00;0.30;158.29;0.00;0.00;0.62;;;;;22.00;1.00;;;;;;2268060;61;1141;-87
2023/09/19 02:53:52;37204.00;0.12;65.05;0.00;0.00;0.62;;;;;22.20;1.00;;;;;;2267981;61;1919;-86
2023/09/19 02:56:19;0.00;0.00;0.62;0.00;0.00;0.62;;;;;22.20;1.00;;;;;;2268142;61;1120;-87
2023/09/19 02:58:46;93108.00;0.31;161.67;0.00;0.00;0.62;;;;;22.40;1.00;;;;;;2268129;61;1115;-84
2023/09/19 03:01:13;73333.00;0.24;127.52;0.00;0.00;0.62;;;;;22.40;1.00;;;;;;2268206;61;1066;-88
2023/09/19 03:03:40;90119.00;0.30;156.51;0.00;0.00;0.62;;;;;22.50;1.00;;;;;;2267927;61;1543;-87
2023/09/19 03:06:08;52948.00;0.18;92.28;0.00;0.00;0.62;;;;;22.60;1.00;;;;;;2268045;61;1730;-86
2023/09/19 03:08:36;406219.00;1.35;700.50;113135.00;0.38;196.24;;;;;22.60;1.00;;;;;;2268326;61;1512;-85
2023/09/19 03:11:07;0.00;0.00;0.62;0.00;0.00;0.62;;;;;22.60;1.00;;;;;;2268279;61;1312;-84
2023/09/19 03:13:36;57164.00;0.19;99.57;0.00;0.00;0.62;;;;;22.70;1.00;;;;;;2268421;61;1179;-87
2023/09/19 03:16:05;23525.00;0.08;41.37;0.00;0.00;0.62;;;;;22.90;1.00;;;;;;2268172;61;1924;-85
2023/09/19 03:18:33;0.00;0.00;0.62;0.00;0.00;0.62;;;;;22.80;1.00;;;;;;2268448;61;1039;-85
2023/09/19 03:21:00;122571.00;0.41;212.52;0.00;0.00;0.62;;;;;22.70;1.00;;;;;;2268268;61;1275;-84
2023/09/19 03:23:28;100213.00;0.33;173.94;0.00;0.00;0.62;;;;;22.50;1.00;;;;;;2268199;61;1130;-86
2023/09/19 03:25:56;136298.00;0.45;236.19;0.00;0.00;0.62;;;;;22.30;1.00;;;;;;2268341;61;918;-85
2023/09/19 03:28:24;241367.00;0.80;417.10;0.00;0.00;0.62;;;;;22.20;1.00;;;;;;2268297;61;942;-87
2023/09/19 03:31:00;202907.00;0.68;350.93;0.00;0.00;0.62;;;;;22.30;1.00;;;;;;2268380;61;1419;-85
2023/09/19 03:33:27;199840.00;0.67;345.65;0.00;0.00;0.62;;;;;22.60;1.00;;;;;;2268310;61;971;-86
2023/09/19 03:35:54;154851.00;0.52;268.17;28063.00;0.09;49.23;;;;;22.40;1.00;;;;;;2268246;61;1932;-85
2023/09/19 03:38:22;210730.00;0.70;364.39;0.00;0.00;0.62;;;;;22.10;1.00;;;;;;2268313;61;1984;-86
2023/09/19 03:40:48;125173.00;0.42;217.00;0.00;0.00;0.62;;;;;21.90;1.00;;;;;;2268201;61;1381;-84
2023/09/19 03:43:15;185509.00;0.62;320.98;0.00;0.00;0.62;;;;;21.80;1.00;;;;;;2268310;61;1078;-87
2023/09/19 03:45:44;166075.00;0.55;287.51;0.00;0.00;0.62;;;;;21.90;1.00;;;;;;2268350;61;1168;-85
2023/09/19 03:48:11;19022.00;0.06;33.58;0.00;0.00;0.62;;;;;21.80;1.00;;;;;;2268229;61;1130;-85
2023/09/19 03:50:38;153117.00;0.51;265.18;0.00;0.00;0.62;;;;;22.20;1.00;;;;;;2268149;61;1269;-87
2023/09/19 03:53:07;160162.00;0.53;277.32;0.00;0.00;0.62;;;;;22.50;1.00;;;;;;2268298;61;1150;-85
2023/09/19 03:55:35;38366.00;0.13;67.06;0.00;0.00;0.62;;;;;22.30;1.00;;;;;;2268213;61;1985;-89
2023/09/19 03:58:02;69128.00;0.23;120.25;0.00;0.00;0.62;;;;;22.20;1.00;;;;;;2268196;61;1724;-86
2023/09/19 04:00:29;43932.00;0.15;76.69;0.00;0.00;0.62;;;;;21.90;1.00;;;;;;2268153;61;1324;-89
2023/09/19 04:02:57;0.00;0.00;0.62;0.00;0.00;0.62;;;;;21.60;1.00;;;;;;2268252;61;1610;-85
2023/09/19 04:05:24;117679.00;0.39;204.08;0.00;0.00;0.62;;;;;21.60;1.90;;;;;;2268058;61;1003;-87
2023/09/19 04:07:51;76111.00;0.25;132.32;0.00;0.00;0.62;;;;;21.40;1.80;;;;;;2268232;61;942;-84
2023/09/19 04:10:18;129611.00;0.43;224.66;0.00;0.00;0.62;;;;;21.40;2.00;;;;;;2268231;61;1328;-90
2023/09/19 04:12:52;427553.00;1.43;737.18;139598.00;0.47;241.88;;;;;21.00;2.80;;;;;;2268356;61;1023;-88
2023/09/19 04:15:19;297728.00;0.99;514.01;91597.00;0.31;159.07;;;;;20.40;6.50;;;;;;2268165;61;1998;-89
2023/09/19 04:17:46;0.00;0.00;0.62;0.00;0.00;0.62;;;;;20.40;6.50;;;;;;2268066;61;1269;-86
2023/09/19 04:20:14;8944.00;0.03;16.12;0.00;0.00;0.62;;;;;20.50;6.50;;;;;;2268129;61;1403;-86
2023/09/19 04:22:41;0.00;0.00;0.62;0.00;0.00;0.62;;;;;20.80;6.00;;;;;;2267982;61;1162;-87
2023/09/19 04:25:08;34868.00;0.12;61.01;0.00;0.00;0.62;;;;;21.00;4.90;;;;;;2268016;61;1137;-85
2023/09/19 04:27:35;124573.00;0.42;215.97;0.00;0.00;0.62;;;;;21.10;4.00;;;;;;2268053;61;1204;-85
2023/09/19 04:30:09;14517.00;0.05;25.77;0.00;0.00;0.62;;;;;21.20;4.30;;;;;;2268005;61;1316;-87
2023/09/19 04:32:38;8957.00;0.03;16.14;0.00;0.00;0.62;;;;;21.30;3.30;;;;;;2267999;61;1115;-86
2023/09/19 04:35:08;0.00;0.00;0.62;0.00;0.00;0.62;;;;;21.40;2.20;;;;;;2268153;61;1920;-87
2023/09/19 04:37:38;37479.00;0.12;65.53;0.00;0.00;0.62;;;;;21.40;1.70;;;;;;2268352;61;1184;-87
2023/09/19 04:40:06;0.00;0.00;0.62;0.00;0.00;0.62;;;;;21.40;2.00;;;;;;2268366;61;1386;-85
2023/09/19 04:42:33;41910.00;0.14;73.19;0.00;0.00;0.62;;;;;21.60;1.60;;;;;;2268293;61;1657;-87
2023/09/19 04:45:00;132217.00;0.44;229.15;28866.00;0.10;50.62;;;;;21.80;1.20;;;;;;2268331;61;1118;-86
2023/09/19 04:47:27;0.00;0.00;0.62;0.00;0.00;0.62;;;;;21.90;1.00;;;;;;2268287;61;1122;-86
2023/09/19 04:49:54;0.00;0.00;0.62;0.00;0.00;0.62;;;;;22.00;1.30;;;;;;2268262;61;1419;-85
2023/09/19 04:52:21;270410.00;0.90;467.05;0.00;0.00;0.62;;;;;22.00;1.00;;;;;;2268280;61;1082;-86
2023/09/19 04:54:49;0.00;0.00;0.62;0.00;0.00;0.62;;;;;22.00;1.40;;;;;;2268269;61;1998;-86
2023/09/19 04:57:16;82386.00;0.27;143.16;0.00;0.00;0.62;;;;;22.20;1.30;;;;;;2268170;61;1012;-88
2023/09/19 04:59:43;44402.00;0.15;77.50;0.00;0.00;0.62;;;;;22.40;1.00;;;;;;2268195;61;1355;-86
2023/09/19 05:02:09;94150.00;0.31;163.47;26614.00;0.09;46.72;;;;;22.20;1.00;;;;;;2268099;61;1655;-85
2023/09/19 05:04:37;140138.00;0.47;242.81;0.00;0.00;0.62;;;;;22.10;1.00;;;;;;2267954;61;1154;-86
2023/09/19 05:07:04;0.00;0.00;0.62;0.00;0.00;0.62;;;;;22.10;1.00;;;;;;2267991;61;1149;-85
2023/09/19 05:09:33;174950.00;0.58;302.79;0.00;0.00;0.62;;;;;22.30;1.00;;;;;;2268007;61;1276;-86
2023/09/19 05:12:02;50846.00;0.17;88.65;0.00;0.00;0.62;;;;;22.10;1.00;;;;;;2267912;61;1203;-84
2023/09/19 05:14:28;607240.00;2.02;1046.72;221509.00;0.74;382.94;;;;;22.30;1.00;;;;;;2267968;61;2000;-86
2023/09/19 05:16:55;158352.00;0.53;274.20;0.00;0.00;0.62;;;;;22.20;1.00;;;;;;2267955;61;1042;-85
2023/09/19 05:19:22;115281.00;0.38;199.94;0.00;0.00;0.62;;;;;22.20;1.00;;;;;;2267819;61;1554;-85
2023/09/19 05:21:49;147310.00;0.49;255.17;0.00;0.00;0.62;;;;;22.00;1.00;;;;;;2267924;61;1696;-86
2023/09/19 05:24:16;109074.00;0.36;189.23;0.00;0.00;0.62;;;;;21.90;1.00;;;;;;2267960;61;1061;-87
2023/09/19 05:26:44;127205.00;0.42;220.51;0.00;0.00;0.62;;;;;21.90;1.00;;;;;;2267943;61;937;-86
2023/09/19 05:29:12;0.00;0.00;0.62;0.00;0.00;0.62;;;;;22.00;1.10;;;;;;2267969;61;1308;-87
2023/09/19 05:31:40;23591.00;0.08;41.49;0.00;0.00;0.62;;;;;22.10;1.00;;;;;;2267883;61;1658;-84
2023/09/19 05:34:07;122578.00;0.41;212.53;0.00;0.00;0.62;;;;;22.40;1.00;;;;;;2267964;61;1068;-87
2023/09/19 05:36:34;11997.00;0.04;21.41;0.00;0.00;0.62;;;;;22.60;1.00;;;;;;2267891;61;1995;-88
2023/09/19 05:39:01;142364.00;0.47;246.65;0.00;0.00;0.62;;;;;22.80;1.00;;;;;;2267915;61;1325;-84
2023/09/19 05:41:28;76862.00;0.26;133.62;0.00;0.00;0.62;;;;;22.90;1.00;;;;;;2267921;61;1092;-85
2023/09/19 05:43:55;0.00;0.00;0.62;0.00;0.00;0.62;;;;;22.90;1.00;;;;;;2267891;61;997;-85
2023/09/19 05:46:23;111226.00;0.37;192.95;0.00;0.00;0.62;;;;;23.00;1.00;;;;;;2268099;61;1088;-86
2023/09/19 05:48:50;87801.00;0.29;152.51;0.00;0.00;0.62;;;;;23.10;1.00;;;;;;2267843;61;1251;-88
2023/09/19 05:51:18;97836.00;0.33;169.84;0.00;0.00;0.62;;;;;23.30;1.00;;;;;;2267844;61;1188;-84
2023/09/19 05:53:48;233447.00;0.78;403.48;45692.00;0.15;79.74;;;;;23.40;1.00;;;;;;2267702;61;1091;-86
2023/09/19 05:56:15;84758.00;0.28;147.26;17561.00;0.06;31.05;;;;;23.80;1.00;;;;;;2267784;61;2000;-84
2023/09/19 05:58:44;12842.00;0.04;22.87;0.00;0.00;0.62;;;;;23.80;1.00;;;;;;2267894;61;1097;-86
2023/09/19 06:01:11;22381.00;0.07;39.39;0.00;0.00;0.62;;;;;23.80;1.00;;;;;;2267881;61;1326;-85
2023/09/19 06:03:39;0.00;0.00;0.62;0.00;0.00;0.62;;;;;23.60;1.00;;;;;;2267894;61;1137;-87
2023/09/19 06:06:06;0.00;0.00;0.62;0.00;0.00;0.62;;;;;23.60;1.00;;;;;;2268134;61;1169;-87
2023/09/19 06:08:33;77043.00;0.26;133.93;0.00;0.00;0.62;;;;;23.00;1.00;;;;;;2267848;61;1633;-84
2023/09/19 06:11:00;72543.00;0.24;126.15;0.00;0.00;0.62;;;;;23.10;1.00;;;;;;2267796;61;1336;-86
2023/09/19 06:13:29;240107.00;0.80;414.94;0.00;0.00;0.62;;;;;23.20;1.00;;;;;;2267849;61;1136;-84
2023/09/19 06:15:58;58275.00;0.19;101.49;0.00;0.00;0.62;;;;;23.10;1.00;;;;;;2268042;61;2001;-86
2023/09/19 06:18:26;222.00;0.00;1.00;0.00;0.00;0.62;;;;;23.10;1.00;;;;;;2267852;61;1275;-86
2023/09/19 06:20:55;53824.00;0.18;93.80;0.00;0.00;0.62;;;;;23.00;1.00;;;;;;2267752;61;1318;-85
2023/09/19 06:23:22;0.00;0.00;0.62;0.00;0.00;0.62;;;;;22.90;1.00;;;;;;2267966;61;1127;-85
2023/09/19 06:25:49;336034.00;1.12;579.86;101721.00;0.34;176.54;;;;;22.40;1.00;;;;;;2267733;61;2030;-82
2023/09/19 06:28:20;6145.00;0.02;11.27;0.00;0.00;0.62;;;;;22.10;1.00;;;;;;2267676;61;984;-86
2023/09/19 06:30:49;0.00;0.00;0.62;0.00;0.00;0.62;;;;;21.70;1.00;;;;;;2268496;61;1370;-86
2023/09/19 06:33:17;72851.00;0.24;126.69;0.00;0.00;0.62;;;;;21.20;3.30;;;;;;2268536;61;1073;-85
2023/09/19 06:35:44;0.00;0.00;0.62;0.00;0.00;0.62;;;;;21.70;2.40;;;;;;2268370;61;1968;-86
2023/09/19 06:38:13;52490.00;0.17;91.49;0.00;0.00;0.62;;;;;21.50;2.70;;;;;;2268792;61;1053;-85
2023/09/19 06:40:42;0.00;0.00;0.62;0.00;0.00;0.62;;;;;21.50;3.20;;;;;;2268682;61;1302;-84
2023/09/19 06:43:11;224316.00;0.75;387.77;0.00;0.00;0.62;;;;;21.90;2.30;;;;;;2268459;61;1229;-87
2023/09/19 06:45:38;228275.00;0.76;394.58;0.00;0.00;0.62;;;;;22.20;1.80;;;;;;2268427;61;1102;-86
2023/09/19 06:48:06;179675.00;0.60;310.93;0.00;0.00;0.62;;;;;22.10;1.90;;;;;;2268387;61;1711;-87
2023/09/19 06:50:34;0.00;0.00;0.62;0.00;0.00;0.62;;;;;22.60;1.30;;;;;;2268484;61;1273;-85
2023/09/19 06:53:02;0.00;0.00;0.62;0.00;0.00;0.62;;;;;22.80;1.00;;;;;;2268435;61;1064;-85
2023/09/19 06:55:31;58189.00;0.19;101.35;0.00;0.00;0.62;;;;;23.20;1.00;;;;;;2268424;61;2004;-87
2023/09/19 06:57:58;53146.00;0.18;92.63;0.00;0.00;0.62;;;;;23.20;1.00;;;;;;2268640;61;1117;-84
2023/09/19 07:00:25;0.00;0.00;0.62;0.00;0.00;0.62;;;;;23.20;1.00;;;;;;2268530;61;1368;-87
2023/09/19 07:03:00;110907.00;0.37;192.40;0.00;0.00;0.62;;;;;23.20;1.00;;;;;;2268476;61;982;-87
2023/09/19 07:05:28;65588.00;0.22;114.14;0.00;0.00;0.62;;;;;23.30;1.00;;;;;;2268443;61;1114;-86
2023/09/19 07:07:56;0.00;0.00;0.62;0.00;0.00;0.62;;;;;23.40;1.00;;;;;;2268400;61;1201;-86
2023/09/19 07:10:25;238.00;0.00;1.03;0.00;0.00;0.62;;;;;22.90;1.00;;;;;;2268247;61;1375;-85
2023/09/19 07:12:58;0.00;0.00;0.62;0.00;0.00;0.62;;;;;22.90;1.00;;;;;;2268394;61;1018;-85
2023/09/19 07:15:25;89892.00;0.30;156.12;0.00;0.00;0.62;;;;;22.70;1.00;;;;;;2268378;61;2014;-85
2023/09/19 07:17:53;44047.00;0.15;76.89;0.00;0.00;0.62;;;;;22.90;1.00;;;;;;2268344;61;977;-85
2023/09/19 07:20:20;61741.00;0.21;107.49;0.00;0.00;0.62;;;;;23.50;1.00;;;;;;2268400;61;1258;-85
2023/09/19 07:22:49;72928.00;0.24;126.82;0.00;0.00;0.62;;;;;24.30;1.00;;;;;;2268276;61;956;-86
2023/09/19 07:25:16;57066.00;0.19;99.40;0.00;0.00;0.62;;;;;24.70;1.00;;;;;;2268582;61;1134;-85
2023/09/19 07:27:43;32359.00;0.11;56.67;0.00;0.00;0.62;;;;;25.10;1.00;;;;;;2268402;61;1096;-86
2023/09/19 07:30:12;391367.00;1.30;674.96;94946.00;0.32;164.85;;;;;25.70;1.00;;;;;;2268166;61;1364;-85
2023/09/19 07:32:40;35322.00;0.12;61.79;0.00;0.00;0.62;;;;;26.00;1.00;;;;;;2268253;61;1075;-85
2023/09/19 07:35:08;29549.00;0.10;51.80;0.00;0.00;0.62;;;;;26.20;1.00;;;;;;2268124;61;1993;-84
2023/09/19 07:37:36;12071.00;0.04;21.54;0.00;0.00;0.62;;;;;26.50;1.00;;;;;;2268353;61;1432;-85
2023/09/19 07:40:06;0.00;0.00;0.62;0.00;0.00;0.62;;;;;26.50;1.00;;;;;;2268030;61;1410;-85
2023/09/19 07:42:35;60474.00;0.20;105.30;0.00;0.00;0.62;;;;;26.00;1.00;;;;;;2268251;61;1069;-86
2023/09/19 07:45:01;12387.00;0.04;22.08;0.00;0.00;0.62;;;;;26.10;1.00;;;;;;2268265;61;1205;-85
2023/09/19 07:47:32;0.00;0.00;0.62;0.00;0.00;0.62;;;;;26.30;1.00;;;;;;2268198;61;1119;-85
2023/09/19 07:49:59;5477.00;0.02;10.11;0.00;0.00;0.62;;;;;26.50;1.00;;;;;;2268351;61;1400;-86
2023/09/19 07:52:27;0.00;0.00;0.62;0.00;0.00;0.62;;;;;26.90;1.00;;;;;;2268406;61;1091;-86
2023/09/19 07:54:54;196631.00;0.66;340.12;0.00;0.00;0.62;;;;;27.00;1.00;;;;;;2268414;61;956;-84
2023/09/19 07:57:21;0.00;0.00;0.62;0.00;0.00;0.62;;;;;26.70;1.00;;;;;;2268308;61;1932;-87
2023/09/19 07:59:48;311595.00;1.04;537.85;56452.00;0.19;98.34;;;;;25.90;1.00;;;;;;2268347;61;1306;-88
2023/09/19 08:04:45;1102372.00;3.67;1914.67;48787.00;0.16;85.09;;;;;24.20;1.00;;;;;;2278175;61;1404;-86
2023/09/19 08:09:46;1114965.00;3.72;1937.21;0.00;0.00;0.62;;;;;24.30;1.00;;;;;;2270163;61;1516;-89
2023/09/19 08:12:14;31971.00;0.11;55.99;0.00;0.00;0.62;;;;;24.00;1.00;;;;;;2275371;40;3594;-88
2023/09/19 08:17:10;526301.00;1.75;907.12;24665.00;0.08;43.35;;;;;23.60;1.00;;;;;;2277961;61;1962;-88
2023/09/19 08:24:42;906288.00;3.02;1567.17;0.00;0.00;0.62;;;;;24.00;1.00;;;;;;2273922;61;1407;-88
2023/09/19 08:27:10;13606.00;0.05;24.20;0.00;0.00;0.62;;;;;24.00;1.00;;;;;;2272338;61;1597;-87
2023/09/19 08:32:10;904801.00;3.02;1564.55;0.00;0.00;0.62;;;;;24.30;1.00;;;;;;2273934;61;1455;-89
2023/09/19 08:34:38;187380.00;0.62;324.20;73328.00;0.24;127.51;;;;;24.30;1.00;;;;;;2272386;61;1136;-87
2023/09/19 08:37:05;73220.00;0.24;127.32;0.00;0.00;0.62;;;;;24.30;1.00;;;;;;2272150;61;1926;-87
2023/09/19 08:39:33;411003.00;1.37;708.72;59774.00;0.20;104.09;;;;;24.50;1.00;;;;;;2273532;61;1341;-88
2023/09/19 08:42:03;79924.00;0.27;138.91;0.00;0.00;0.62;;;;;24.30;1.00;;;;;;2276390;61;1802;-86
2023/09/19 08:44:31;62292.00;0.21;108.44;0.00;0.00;0.62;;;;;23.40;1.00;;;;;;2276365;61;1739;-87
2023/09/19 08:47:09;160376.00;0.53;277.69;0.00;0.00;0.62;;;;;22.90;1.00;;;;;;2276414;61;987;-88
2023/09/19 08:49:50;239334.00;0.80;413.61;0.00;0.00;0.62;;;;;22.80;1.00;;;;;;2276372;61;1313;-87
2023/09/19 08:52:23;358450.00;1.19;618.38;129451.00;0.43;224.38;;;;;22.80;1.00;;;;;;2276155;61;1554;-87
2023/09/19 08:54:55;34102.00;0.11;59.68;0.00;0.00;0.62;;;;;23.50;1.00;;;;;;2276252;61;1995;-89
2023/09/19 08:57:24;119684.00;0.40;207.54;0.00;0.00;0.62;;;;;24.10;1.00;;;;;;2276350;61;1990;-87
2023/09/19 08:59:54;203125.00;0.68;351.30;0.00;0.00;0.62;;;;;23.80;1.00;;;;;;2276299;61;1285;-88
2023/09/19 09:02:23;51746.00;0.17;90.21;0.00;0.00;0.62;;;;;23.80;1.00;;;;;;2276145;61;1568;-86
2023/09/19 09:04:51;34395.00;0.11;60.19;0.00;0.00;0.62;;;;;24.30;1.00;;;;;;2276329;61;1250;-89
2023/09/19 09:07:20;89841.00;0.30;156.03;0.00;0.00;0.62;;;;;24.50;1.00;;;;;;2276393;61;1066;-88
2023/09/19 09:09:48;45850.00;0.15;80.01;0.00;0.00;0.62;;;;;24.30;1.00;;;;;;2276285;61;1371;-88
2023/09/19 09:12:15;93142.00;0.31;161.73;0.00;0.00;0.62;;;;;24.10;1.00;;;;;;2276309;61;989;-89
2023/09/19 09:14:49;210422.00;0.70;363.86;0.00;0.00;0.62;;;;;24.50;1.00;;;;;;2276271;61;1218;-89
2023/09/19 09:17:20;70184.00;0.23;122.08;0.00;0.00;0.62;;;;;24.70;1.00;;;;;;2276272;61;2008;-86
2023/09/19 09:19:47;30512.00;0.10;53.47;0.00;0.00;0.62;;;;;24.80;1.00;;;;;;2276243;61;1513;-87
2023/09/19 09:22:14;149966.00;0.50;259.75;0.00;0.00;0.62;;;;;24.30;1.00;;;;;;2276165;61;1041;-86
2023/09/19 09:24:53;134769.00;0.45;233.55;0.00;0.00;0.62;;;;;23.90;1.00;;;;;;2276293;61;974;-86
2023/09/19 09:27:23;200818.00;0.67;347.33;67728.00;0.23;117.83;;;;;24.30;1.00;;;;;;2276340;61;1090;-89
2023/09/19 09:29:55;25430.00;0.08;44.67;0.00;0.00;0.62;;;;;24.30;1.00;;;;;;2276189;61;1388;-88
2023/09/19 09:32:24;149627.00;0.50;259.16;0.00;0.00;0.62;;;;;23.80;1.00;;;;;;2276268;61;1050;-88
2023/09/19 09:34:53;123885.00;0.41;214.78;0.00;0.00;0.62;;;;;23.80;1.00;;;;;;2276271;61;1040;-88
2023/09/19 09:37:20;154897.00;0.52;268.25;0.00;0.00;0.62;;;;;24.10;1.00;;;;;;2276189;61;1994;-89
2023/09/19 09:39:54;163946.00;0.55;283.84;0.00;0.00;0.62;;;;;24.40;1.00;;;;;;2281751;40;3618;-88
2023/09/19 09:45:14;621200.00;2.07;1070.84;0.00;0.00;0.62;;;;;24.50;1.00;;;;;;2273736;61;1261;-87
2023/09/19 09:47:54;224389.00;0.75;387.90;84304.00;0.28;146.47;;;;;24.80;1.00;;;;;;2271999;61;1110;-92
2023/09/19 09:50:44;0.00;0.00;0.62;0.00;0.00;0.62;;;;;23.70;1.00;;;;;;2272137;61;1594;-88
2023/09/19 09:53:27;10320.00;0.03;18.50;0.00;0.00;0.62;;;;;23.50;1.00;;;;;;2272162;61;1146;-88
2023/09/19 09:56:05;0.00;0.00;0.62;0.00;0.00;0.62;;;;;23.50;1.00;;;;;;2272102;61;1920;-89
2023/09/19 09:58:32;0.00;0.00;0.62;0.00;0.00;0.62;;;;;23.80;1.00;;;;;;2278798;55;3733;-88
2023/09/19 10:01:08;279348.00;0.93;482.42;47946.00;0.16;83.63;;;;;23.80;1.00;;;;;;2276064;61;1400;-88
2023/09/19 10:03:39;34495.00;0.11;60.36;0.00;0.00;0.62;;;;;23.60;1.00;;;;;;2276252;61;1118;-89
2023/09/19 10:06:24;16159.00;0.05;28.62;0.00;0.00;0.62;;;;;23.60;1.00;;;;;;2276927;61;2204;-89
2023/09/19 10:09:10;9887.00;0.03;17.75;0.00;0.00;0.62;;;;;23.80;1.00;;;;;;2276845;61;1721;-89
2023/09/19 10:11:42;64062.00;0.21;111.50;0.00;0.00;0.62;;;;;24.10;1.00;;;;;;2276831;61;1031;-89
2023/09/19 10:14:12;218741.00;0.73;378.18;0.00;0.00;0.62;;;;;23.90;1.00;;;;;;2286125;39;3576;-89
2023/09/19 10:16:46;130876.00;0.44;226.84;0.00;0.00;0.62;;;;;24.10;1.00;;;;;;2276940;61;1918;-89
2023/09/19 10:19:20;138361.00;0.46;239.75;0.00;0.00;0.62;;;;;24.50;1.00;;;;;;2276888;61;1263;-89
2023/09/19 10:21:48;48310.00;0.16;84.26;0.00;0.00;0.62;;;;;24.60;1.00;;;;;;2276914;61;1299;-89
2023/09/19 10:24:17;125760.00;0.42;218.02;0.00;0.00;0.62;;;;;24.50;1.00;;;;;;2276805;61;1035;-88
2023/09/19 10:26:46;0.00;0.00;0.62;0.00;0.00;0.62;;;;;24.10;1.00;;;;;;2276724;61;1649;-87
2023/09/19 10:29:16;133443.00;0.44;231.27;0.00;0.00;0.62;;;;;23.70;1.00;;;;;;2276791;61;1259;-88
2023/09/19 10:31:47;197335.00;0.66;341.34;9884.00;0.03;17.75;;;;;23.50;1.00;;;;;;2276932;61;1029;-87
2023/09/19 10:34:16;247805.00;0.83;428.18;109594.00;0.37;190.13;;;;;24.10;1.00;;;;;;2276857;61;1771;-88
2023/09/19 10:36:46;0.00;0.00;0.62;0.00;0.00;0.62;;;;;24.40;1.00;;;;;;2276679;61;2008;-88
2023/09/19 10:39:19;10257.00;0.03;18.39;0.00;0.00;0.62;;;;;24.60;1.00;;;;;;2276772;61;1353;-88